Terminal Aerodrome Forecast
Issued by NWS Tallahassee, FL

Home | Current Version | Previous Version | Text Only | Print | Product List | Glossary On
Versions: 1 2 3 4 5 6 7 8 9 10 11 12 13
527
FTUS42 KTAE 111120
TAFTLH
TAF
KTLH 111120Z 1112/1212 23003KT P6SM SKC
     FM111600 21010KT P6SM SKC
     FM120000 19003KT P6SM SCT020=

USA.gov is the U.S. government's official web portal to all federal, state and local government web resources and services.